首页
METAR-TAF:

METAR-TAF

机场 :

圣加仑, 瑞士

纬度: 47-29-06N, 经度: 009-33-43E, 海拔: 398米

当前天气观测

该预报发布于33分钟前的01:20 UTC
风速3节,风向
温度 6°C
湿度 81%
气压 1027 hPa
能见度10公里或以上
1500米以下无云,无积雨云

METAR: LSZR 070120Z AUTO 09003KT CAVOK 06/03 Q1027

时间: 03:53 (01:53 UTC)

预报

该预报发布于11小时和28分钟前的14:25 UTC
预报有效从06日的 15点(UTC)到 06日的 24点(UTC)
风速4节,风向西转西北
能见度10公里或以上
1500米以下无云,无积雨云

TAF: LSZR 061425Z 0615/0624 29004KT CAVOK

超过4000个机场的气象观测和天气预报(METAR&TAF报告)。

可查询的气象台以黄色和红色小点在地图上表示。

将鼠标移到小点上方,可查看气象台名称。

然后点击查看天气观测和预报。

如需切换地图:点击带黑十字的绿色按钮放大地图;点击带横线的绿色按钮缩小地图;或者点击绿色箭头查看邻近地区的地图。


METAR-TAF: